sensor_id;sensor_type;location;lat;lon;timestamp;P1;durP1;ratioP1;P2;durP2;ratioP2
48767;SDS011;34933;40.968;14.538;2023-11-21T00:01:39;27.13;;;16.25;;
48767;SDS011;34933;40.968;14.538;2023-11-21T00:04:24;19.50;;;14.18;;
48767;SDS011;34933;40.968;14.538;2023-11-21T00:07:09;18.60;;;13.30;;
48767;SDS011;34933;40.968;14.538;2023-11-21T00:09:53;22.25;;;14.20;;
48767;SDS011;34933;40.968;14.538;2023-11-21T00:12:39;20.25;;;14.63;;
48767;SDS011;34933;40.968;14.538;2023-11-21T00:15:26;27.83;;;14.63;;
48767;SDS011;34933;40.968;14.538;2023-11-21T00:18:10;15.32;;;12.07;;
48767;SDS011;34933;40.968;14.538;2023-11-21T00:20:55;16.67;;;12.77;;
48767;SDS011;34933;40.968;14.538;2023-11-21T00:23:42;19.88;;;12.90;;
48767;SDS011;34933;40.968;14.538;2023-11-21T00:26:27;12.90;;;11.57;;
48767;SDS011;34933;40.968;14.538;2023-11-21T00:29:19;12.48;;;10.70;;
48767;SDS011;34933;40.968;14.538;2023-11-21T00:32:07;13.18;;;10.57;;
48767;SDS011;34933;40.968;14.538;2023-11-21T00:34:51;15.50;;;12.60;;
48767;SDS011;34933;40.968;14.538;2023-11-21T00:37:36;14.73;;;13.13;;
48767;SDS011;34933;40.968;14.538;2023-11-21T00:40:23;17.30;;;12.40;;
48767;SDS011;34933;40.968;14.538;2023-11-21T00:43:08;19.88;;;14.52;;
48767;SDS011;34933;40.968;14.538;2023-11-21T00:45:54;16.08;;;13.00;;
48767;SDS011;34933;40.968;14.538;2023-11-21T00:48:39;14.60;;;11.68;;
48767;SDS011;34933;40.968;14.538;2023-11-21T00:51:24;20.25;;;12.85;;
48767;SDS011;34933;40.968;14.538;2023-11-21T00:54:09;15.98;;;11.70;;
48767;SDS011;34933;40.968;14.538;2023-11-21T00:56:54;19.23;;;13.88;;
48767;SDS011;34933;40.968;14.538;2023-11-21T00:59:38;19.70;;;13.70;;
48767;SDS011;34933;40.968;14.538;2023-11-21T01:02:25;14.52;;;12.32;;
48767;SDS011;34933;40.968;14.538;2023-11-21T01:05:10;16.83;;;12.35;;
48767;SDS011;34933;40.968;14.538;2023-11-21T01:07:54;16.27;;;11.68;;
48767;SDS011;34933;40.968;14.538;2023-11-21T01:10:39;16.50;;;11.27;;
48767;SDS011;34933;40.968;14.538;2023-11-21T01:13:23;13.80;;;11.02;;
48767;SDS011;34933;40.968;14.538;2023-11-21T01:16:12;16.80;;;11.45;;
48767;SDS011;34933;40.968;14.538;2023-11-21T01:18:57;16.17;;;10.88;;
48767;SDS011;34933;40.968;14.538;2023-11-21T01:21:42;18.38;;;11.45;;
48767;SDS011;34933;40.968;14.538;2023-11-21T01:24:26;13.15;;;11.27;;
48767;SDS011;34933;40.968;14.538;2023-11-21T01:27:11;14.88;;;11.82;;
48767;SDS011;34933;40.968;14.538;2023-11-21T01:29:56;16.25;;;10.73;;
48767;SDS011;34933;40.968;14.538;2023-11-21T01:32:40;14.23;;;10.35;;
48767;SDS011;34933;40.968;14.538;2023-11-21T01:35:25;16.33;;;11.20;;
48767;SDS011;34933;40.968;14.538;2023-11-21T01:38:10;15.48;;;11.25;;
48767;SDS011;34933;40.968;14.538;2023-11-21T01:40:56;14.30;;;10.45;;
48767;SDS011;34933;40.968;14.538;2023-11-21T01:43:41;18.05;;;10.93;;
48767;SDS011;34933;40.968;14.538;2023-11-21T01:46:25;13.68;;;11.10;;
48767;SDS011;34933;40.968;14.538;2023-11-21T01:49:10;15.32;;;7.97;;
48767;SDS011;34933;40.968;14.538;2023-11-21T01:51:57;16.08;;;7.80;;
48767;SDS011;34933;40.968;14.538;2023-11-21T01:54:42;11.77;;;7.30;;
48767;SDS011;34933;40.968;14.538;2023-11-21T01:57:27;11.02;;;6.88;;
48767;SDS011;34933;40.968;14.538;2023-11-21T02:00:12;9.00;;;5.93;;
48767;SDS011;34933;40.968;14.538;2023-11-21T02:03:00;9.43;;;5.95;;
48767;SDS011;34933;40.968;14.538;2023-11-21T02:05:46;11.02;;;6.18;;
48767;SDS011;34933;40.968;14.538;2023-11-21T02:08:30;7.57;;;4.72;;
48767;SDS011;34933;40.968;14.538;2023-11-21T02:11:15;9.02;;;5.07;;
48767;SDS011;34933;40.968;14.538;2023-11-21T02:14:00;6.82;;;4.43;;
48767;SDS011;34933;40.968;14.538;2023-11-21T02:16:45;10.95;;;4.90;;
48767;SDS011;34933;40.968;14.538;2023-11-21T02:19:33;9.43;;;4.57;;
48767;SDS011;34933;40.968;14.538;2023-11-21T02:22:18;5.90;;;4.38;;
48767;SDS011;34933;40.968;14.538;2023-11-21T02:25:03;7.00;;;4.15;;
48767;SDS011;34933;40.968;14.538;2023-11-21T02:27:49;11.38;;;4.40;;
48767;SDS011;34933;40.968;14.538;2023-11-21T02:30:33;5.32;;;3.72;;
48767;SDS011;34933;40.968;14.538;2023-11-21T02:33:18;8.88;;;3.53;;
48767;SDS011;34933;40.968;14.538;2023-11-21T02:36:04;7.75;;;3.63;;
48767;SDS011;34933;40.968;14.538;2023-11-21T02:38:49;6.35;;;3.85;;
48767;SDS011;34933;40.968;14.538;2023-11-21T02:41:34;7.53;;;3.05;;
48767;SDS011;34933;40.968;14.538;2023-11-21T02:44:19;5.85;;;3.25;;
48767;SDS011;34933;40.968;14.538;2023-11-21T02:47:04;4.55;;;3.03;;
48767;SDS011;34933;40.968;14.538;2023-11-21T02:49:48;5.50;;;3.28;;
48767;SDS011;34933;40.968;14.538;2023-11-21T02:52:33;7.95;;;3.88;;
48767;SDS011;34933;40.968;14.538;2023-11-21T02:55:18;6.45;;;2.88;;
48767;SDS011;34933;40.968;14.538;2023-11-21T02:58:04;7.10;;;3.38;;
48767;SDS011;34933;40.968;14.538;2023-11-21T03:00:48;7.82;;;3.45;;
48767;SDS011;34933;40.968;14.538;2023-11-21T03:03:33;5.00;;;2.75;;
48767;SDS011;34933;40.968;14.538;2023-11-21T03:06:18;5.82;;;3.15;;
48767;SDS011;34933;40.968;14.538;2023-11-21T03:09:03;6.47;;;2.83;;
48767;SDS011;34933;40.968;14.538;2023-11-21T03:11:48;5.22;;;2.97;;
48767;SDS011;34933;40.968;14.538;2023-11-21T03:14:32;6.65;;;2.90;;
48767;SDS011;34933;40.968;14.538;2023-11-21T03:17:17;5.70;;;2.80;;
48767;SDS011;34933;40.968;14.538;2023-11-21T03:20:02;7.63;;;3.00;;
48767;SDS011;34933;40.968;14.538;2023-11-21T03:22:48;7.78;;;3.15;;
48767;SDS011;34933;40.968;14.538;2023-11-21T03:25:32;7.88;;;3.15;;
48767;SDS011;34933;40.968;14.538;2023-11-21T03:28:17;5.80;;;3.60;;
48767;SDS011;34933;40.968;14.538;2023-11-21T03:31:02;4.07;;;2.90;;
48767;SDS011;34933;40.968;14.538;2023-11-21T03:33:47;5.75;;;3.38;;
48767;SDS011;34933;40.968;14.538;2023-11-21T03:36:32;4.75;;;3.28;;
48767;SDS011;34933;40.968;14.538;2023-11-21T03:39:16;8.60;;;3.80;;
48767;SDS011;34933;40.968;14.538;2023-11-21T03:42:01;5.85;;;3.92;;
48767;SDS011;34933;40.968;14.538;2023-11-21T03:44:46;7.78;;;3.80;;
48767;SDS011;34933;40.968;14.538;2023-11-21T03:47:31;4.60;;;3.60;;
48767;SDS011;34933;40.968;14.538;2023-11-21T03:50:16;9.70;;;4.22;;
48767;SDS011;34933;40.968;14.538;2023-11-21T03:53:02;4.50;;;3.88;;
48767;SDS011;34933;40.968;14.538;2023-11-21T03:55:48;10.27;;;4.38;;
48767;SDS011;34933;40.968;14.538;2023-11-21T03:58:33;8.38;;;4.95;;
48767;SDS011;34933;40.968;14.538;2023-11-21T04:01:21;6.78;;;4.60;;
48767;SDS011;34933;40.968;14.538;2023-11-21T04:04:07;5.70;;;4.25;;
48767;SDS011;34933;40.968;14.538;2023-11-21T04:06:51;7.00;;;4.38;;
48767;SDS011;34933;40.968;14.538;2023-11-21T04:09:36;5.95;;;4.32;;
48767;SDS011;34933;40.968;14.538;2023-11-21T04:12:20;6.60;;;4.18;;
48767;SDS011;34933;40.968;14.538;2023-11-21T04:15:05;8.73;;;4.40;;
48767;SDS011;34933;40.968;14.538;2023-11-21T04:17:52;6.55;;;4.72;;
48767;SDS011;34933;40.968;14.538;2023-11-21T04:20:37;8.23;;;4.85;;
48767;SDS011;34933;40.968;14.538;2023-11-21T04:23:21;11.13;;;4.70;;
48767;SDS011;34933;40.968;14.538;2023-11-21T04:26:06;7.65;;;4.43;;
48767;SDS011;34933;40.968;14.538;2023-11-21T04:28:51;6.03;;;3.97;;
48767;SDS011;34933;40.968;14.538;2023-11-21T04:31:35;8.13;;;4.22;;
48767;SDS011;34933;40.968;14.538;2023-11-21T04:34:21;7.78;;;4.80;;
48767;SDS011;34933;40.968;14.538;2023-11-21T04:37:05;8.25;;;4.40;;
48767;SDS011;34933;40.968;14.538;2023-11-21T04:39:50;6.10;;;4.50;;
48767;SDS011;34933;40.968;14.538;2023-11-21T04:42:35;4.90;;;3.92;;
48767;SDS011;34933;40.968;14.538;2023-11-21T04:45:20;6.07;;;3.60;;
48767;SDS011;34933;40.968;14.538;2023-11-21T04:48:05;6.82;;;3.90;;
48767;SDS011;34933;40.968;14.538;2023-11-21T04:50:50;6.57;;;3.80;;
48767;SDS011;34933;40.968;14.538;2023-11-21T04:53:35;7.70;;;4.40;;
48767;SDS011;34933;40.968;14.538;2023-11-21T04:56:20;4.75;;;3.65;;
48767;SDS011;34933;40.968;14.538;2023-11-21T04:59:04;4.38;;;3.55;;
48767;SDS011;34933;40.968;14.538;2023-11-21T05:01:49;7.13;;;3.97;;
48767;SDS011;34933;40.968;14.538;2023-11-21T05:04:33;6.25;;;3.97;;
48767;SDS011;34933;40.968;14.538;2023-11-21T05:07:18;5.15;;;3.72;;
48767;SDS011;34933;40.968;14.538;2023-11-21T05:10:04;5.68;;;4.68;;
48767;SDS011;34933;40.968;14.538;2023-11-21T05:12:54;7.10;;;4.65;;
48767;SDS011;34933;40.968;14.538;2023-11-21T05:15:39;4.45;;;4.05;;
48767;SDS011;34933;40.968;14.538;2023-11-21T05:18:25;4.10;;;3.70;;
48767;SDS011;34933;40.968;14.538;2023-11-21T05:21:13;7.95;;;4.22;;
48767;SDS011;34933;40.968;14.538;2023-11-21T05:23:58;6.47;;;4.10;;
48767;SDS011;34933;40.968;14.538;2023-11-21T05:26:43;8.48;;;4.22;;
48767;SDS011;34933;40.968;14.538;2023-11-21T05:29:28;7.32;;;4.68;;
48767;SDS011;34933;40.968;14.538;2023-11-21T05:32:12;8.02;;;4.78;;
48767;SDS011;34933;40.968;14.538;2023-11-21T05:34:57;7.63;;;4.43;;
48767;SDS011;34933;40.968;14.538;2023-11-21T05:37:42;7.25;;;5.38;;
48767;SDS011;34933;40.968;14.538;2023-11-21T05:40:27;5.85;;;5.20;;
48767;SDS011;34933;40.968;14.538;2023-11-21T05:43:13;10.20;;;5.75;;
48767;SDS011;34933;40.968;14.538;2023-11-21T05:45:59;7.72;;;5.07;;
48767;SDS011;34933;40.968;14.538;2023-11-21T05:48:44;7.65;;;5.63;;
48767;SDS011;34933;40.968;14.538;2023-11-21T05:51:29;11.35;;;6.00;;
48767;SDS011;34933;40.968;14.538;2023-11-21T05:54:13;8.80;;;5.88;;
48767;SDS011;34933;40.968;14.538;2023-11-21T05:56:58;6.35;;;5.75;;
48767;SDS011;34933;40.968;14.538;2023-11-21T05:59:44;8.75;;;6.20;;
48767;SDS011;34933;40.968;14.538;2023-11-21T06:02:29;10.98;;;6.05;;
48767;SDS011;34933;40.968;14.538;2023-11-21T06:05:14;5.45;;;4.90;;
48767;SDS011;34933;40.968;14.538;2023-11-21T06:07:59;10.95;;;7.72;;
48767;SDS011;34933;40.968;14.538;2023-11-21T06:10:44;9.15;;;6.80;;
48767;SDS011;34933;40.968;14.538;2023-11-21T06:13:33;7.30;;;6.00;;
48767;SDS011;34933;40.968;14.538;2023-11-21T06:16:20;12.75;;;7.85;;
48767;SDS011;34933;40.968;14.538;2023-11-21T06:19:05;15.77;;;9.63;;
48767;SDS011;34933;40.968;14.538;2023-11-21T06:21:50;18.45;;;11.07;;
48767;SDS011;34933;40.968;14.538;2023-11-21T06:24:34;17.75;;;9.77;;
48767;SDS011;34933;40.968;14.538;2023-11-21T06:27:19;33.33;;;20.90;;
48767;SDS011;34933;40.968;14.538;2023-11-21T06:30:04;30.98;;;18.17;;
48767;SDS011;34933;40.968;14.538;2023-11-21T06:32:50;17.75;;;12.95;;
48767;SDS011;34933;40.968;14.538;2023-11-21T06:35:36;17.75;;;11.68;;
48767;SDS011;34933;40.968;14.538;2023-11-21T06:38:20;19.40;;;13.57;;
48767;SDS011;34933;40.968;14.538;2023-11-21T06:41:05;20.98;;;11.90;;
48767;SDS011;34933;40.968;14.538;2023-11-21T06:43:50;13.52;;;10.23;;
48767;SDS011;34933;40.968;14.538;2023-11-21T06:46:35;14.65;;;8.68;;
48767;SDS011;34933;40.968;14.538;2023-11-21T06:49:19;12.45;;;8.70;;
48767;SDS011;34933;40.968;14.538;2023-11-21T06:52:04;16.58;;;9.60;;
48767;SDS011;34933;40.968;14.538;2023-11-21T06:54:49;13.68;;;8.85;;
48767;SDS011;34933;40.968;14.538;2023-11-21T06:57:34;20.25;;;9.85;;
48767;SDS011;34933;40.968;14.538;2023-11-21T07:00:18;15.80;;;9.05;;
48767;SDS011;34933;40.968;14.538;2023-11-21T07:03:03;14.30;;;9.18;;
48767;SDS011;34933;40.968;14.538;2023-11-21T07:05:48;14.02;;;9.45;;
48767;SDS011;34933;40.968;14.538;2023-11-21T07:08:32;17.70;;;11.55;;
48767;SDS011;34933;40.968;14.538;2023-11-21T07:11:17;14.20;;;7.38;;
48767;SDS011;34933;40.968;14.538;2023-11-21T07:14:02;13.73;;;5.90;;
48767;SDS011;34933;40.968;14.538;2023-11-21T07:16:51;16.48;;;6.72;;
48767;SDS011;34933;40.968;14.538;2023-11-21T07:19:36;17.27;;;7.68;;
48767;SDS011;34933;40.968;14.538;2023-11-21T07:22:21;11.20;;;6.40;;
48767;SDS011;34933;40.968;14.538;2023-11-21T07:25:05;21.88;;;8.52;;
48767;SDS011;34933;40.968;14.538;2023-11-21T07:27:51;14.05;;;7.15;;
48767;SDS011;34933;40.968;14.538;2023-11-21T07:30:37;15.25;;;6.85;;
48767;SDS011;34933;40.968;14.538;2023-11-21T07:33:21;17.10;;;6.55;;
48767;SDS011;34933;40.968;14.538;2023-11-21T07:36:06;17.50;;;6.60;;
48767;SDS011;34933;40.968;14.538;2023-11-21T07:38:52;18.08;;;6.82;;
48767;SDS011;34933;40.968;14.538;2023-11-21T07:41:37;18.45;;;7.60;;
48767;SDS011;34933;40.968;14.538;2023-11-21T07:44:28;15.57;;;8.05;;
48767;SDS011;34933;40.968;14.538;2023-11-21T07:47:13;11.48;;;6.65;;
48767;SDS011;34933;40.968;14.538;2023-11-21T07:49:58;15.77;;;7.35;;
48767;SDS011;34933;40.968;14.538;2023-11-21T07:52:42;25.15;;;13.70;;
48767;SDS011;34933;40.968;14.538;2023-11-21T07:55:27;22.88;;;13.32;;
48767;SDS011;34933;40.968;14.538;2023-11-21T07:58:12;23.50;;;13.13;;
48767;SDS011;34933;40.968;14.538;2023-11-21T08:00:56;31.25;;;17.55;;
48767;SDS011;34933;40.968;14.538;2023-11-21T08:03:41;18.88;;;8.77;;
48767;SDS011;34933;40.968;14.538;2023-11-21T08:06:25;27.77;;;19.90;;
48767;SDS011;34933;40.968;14.538;2023-11-21T08:09:10;18.83;;;12.90;;
48767;SDS011;34933;40.968;14.538;2023-11-21T08:11:56;17.48;;;10.30;;
48767;SDS011;34933;40.968;14.538;2023-11-21T08:14:40;23.90;;;10.48;;
48767;SDS011;34933;40.968;14.538;2023-11-21T08:17:25;23.10;;;10.25;;
48767;SDS011;34933;40.968;14.538;2023-11-21T08:20:10;24.05;;;11.55;;
48767;SDS011;34933;40.968;14.538;2023-11-21T08:22:55;26.75;;;12.70;;
48767;SDS011;34933;40.968;14.538;2023-11-21T08:25:41;23.33;;;11.02;;
48767;SDS011;34933;40.968;14.538;2023-11-21T08:28:26;18.33;;;9.27;;
48767;SDS011;34933;40.968;14.538;2023-11-21T08:31:11;17.15;;;7.55;;
48767;SDS011;34933;40.968;14.538;2023-11-21T08:33:56;17.02;;;7.60;;
48767;SDS011;34933;40.968;14.538;2023-11-21T08:36:43;13.43;;;5.90;;
48767;SDS011;34933;40.968;14.538;2023-11-21T08:39:28;10.68;;;6.68;;
48767;SDS011;34933;40.968;14.538;2023-11-21T08:42:14;10.65;;;6.07;;
48767;SDS011;34933;40.968;14.538;2023-11-21T08:44:58;10.82;;;6.70;;
48767;SDS011;34933;40.968;14.538;2023-11-21T08:47:43;10.77;;;5.63;;
48767;SDS011;34933;40.968;14.538;2023-11-21T08:50:28;18.73;;;10.07;;
48767;SDS011;34933;40.968;14.538;2023-11-21T08:53:13;9.00;;;3.55;;
48767;SDS011;34933;40.968;14.538;2023-11-21T08:55:57;6.32;;;2.65;;
48767;SDS011;34933;40.968;14.538;2023-11-21T08:58:42;11.20;;;5.38;;
48767;SDS011;34933;40.968;14.538;2023-11-21T09:01:27;9.57;;;4.43;;
48767;SDS011;34933;40.968;14.538;2023-11-21T09:04:15;15.30;;;4.57;;
48767;SDS011;34933;40.968;14.538;2023-11-21T09:06:59;6.32;;;2.95;;
48767;SDS011;34933;40.968;14.538;2023-11-21T09:09:44;10.40;;;3.60;;
48767;SDS011;34933;40.968;14.538;2023-11-21T09:12:29;8.60;;;3.25;;
48767;SDS011;34933;40.968;14.538;2023-11-21T09:15:13;8.60;;;3.58;;
48767;SDS011;34933;40.968;14.538;2023-11-21T09:17:59;12.60;;;5.40;;
48767;SDS011;34933;40.968;14.538;2023-11-21T09:20:45;10.30;;;4.97;;
48767;SDS011;34933;40.968;14.538;2023-11-21T09:23:29;11.07;;;4.30;;
48767;SDS011;34933;40.968;14.538;2023-11-21T09:26:14;12.13;;;3.88;;
48767;SDS011;34933;40.968;14.538;2023-11-21T09:29:00;11.25;;;3.10;;
48767;SDS011;34933;40.968;14.538;2023-11-21T09:31:46;9.93;;;3.72;;
48767;SDS011;34933;40.968;14.538;2023-11-21T09:34:30;14.52;;;4.43;;
48767;SDS011;34933;40.968;14.538;2023-11-21T09:37:16;10.95;;;4.07;;
48767;SDS011;34933;40.968;14.538;2023-11-21T09:40:01;15.52;;;7.05;;
48767;SDS011;34933;40.968;14.538;2023-11-21T09:42:56;10.65;;;5.57;;
48767;SDS011;34933;40.968;14.538;2023-11-21T09:45:47;13.10;;;5.93;;
48767;SDS011;34933;40.968;14.538;2023-11-21T09:48:34;11.43;;;4.15;;
48767;SDS011;34933;40.968;14.538;2023-11-21T09:51:21;11.45;;;3.78;;
48767;SDS011;34933;40.968;14.538;2023-11-21T09:54:10;6.45;;;3.70;;
48767;SDS011;34933;40.968;14.538;2023-11-21T09:56:56;8.73;;;2.88;;
48767;SDS011;34933;40.968;14.538;2023-11-21T09:59:41;8.75;;;3.83;;
48767;SDS011;34933;40.968;14.538;2023-11-21T10:02:29;7.22;;;2.30;;
48767;SDS011;34933;40.968;14.538;2023-11-21T10:05:14;11.60;;;3.58;;
48767;SDS011;34933;40.968;14.538;2023-11-21T10:08:01;9.75;;;2.97;;
48767;SDS011;34933;40.968;14.538;2023-11-21T10:10:49;8.38;;;2.88;;
48767;SDS011;34933;40.968;14.538;2023-11-21T10:13:37;7.50;;;3.60;;
48767;SDS011;34933;40.968;14.538;2023-11-21T10:16:25;8.98;;;3.40;;
48767;SDS011;34933;40.968;14.538;2023-11-21T10:19:11;6.45;;;3.33;;
48767;SDS011;34933;40.968;14.538;2023-11-21T10:21:59;9.35;;;3.55;;
48767;SDS011;34933;40.968;14.538;2023-11-21T10:24:45;9.82;;;4.32;;
48767;SDS011;34933;40.968;14.538;2023-11-21T10:27:30;11.60;;;4.43;;
48767;SDS011;34933;40.968;14.538;2023-11-21T10:30:15;8.27;;;4.40;;
48767;SDS011;34933;40.968;14.538;2023-11-21T10:32:59;19.23;;;6.30;;
48767;SDS011;34933;40.968;14.538;2023-11-21T10:35:46;12.38;;;5.45;;
48767;SDS011;34933;40.968;14.538;2023-11-21T10:38:42;15.10;;;9.13;;
48767;SDS011;34933;40.968;14.538;2023-11-21T10:41:29;15.73;;;6.35;;
48767;SDS011;34933;40.968;14.538;2023-11-21T10:44:16;10.43;;;5.85;;
48767;SDS011;34933;40.968;14.538;2023-11-21T10:47:06;10.45;;;5.18;;
48767;SDS011;34933;40.968;14.538;2023-11-21T10:49:55;12.82;;;5.90;;
48767;SDS011;34933;40.968;14.538;2023-11-21T10:52:40;11.38;;;5.70;;
48767;SDS011;34933;40.968;14.538;2023-11-21T10:55:27;17.92;;;5.68;;
48767;SDS011;34933;40.968;14.538;2023-11-21T10:58:13;13.52;;;6.25;;
48767;SDS011;34933;40.968;14.538;2023-11-21T11:00:58;15.52;;;6.63;;
48767;SDS011;34933;40.968;14.538;2023-11-21T11:03:43;8.75;;;4.30;;
48767;SDS011;34933;40.968;14.538;2023-11-21T11:06:28;10.13;;;5.75;;
48767;SDS011;34933;40.968;14.538;2023-11-21T11:09:13;10.05;;;5.70;;
48767;SDS011;34933;40.968;14.538;2023-11-21T11:12:03;11.77;;;5.93;;
48767;SDS011;34933;40.968;14.538;2023-11-21T11:14:50;15.32;;;5.57;;
48767;SDS011;34933;40.968;14.538;2023-11-21T11:17:36;13.43;;;5.80;;
48767;SDS011;34933;40.968;14.538;2023-11-21T11:20:27;11.23;;;6.60;;
48767;SDS011;34933;40.968;14.538;2023-11-21T11:26:33;10.55;;;5.93;;
48767;SDS011;34933;40.968;14.538;2023-11-21T11:29:38;11.85;;;4.78;;
48767;SDS011;34933;40.968;14.538;2023-11-21T11:32:40;12.60;;;5.10;;
48767;SDS011;34933;40.968;14.538;2023-11-21T11:38:46;10.45;;;4.63;;
48767;SDS011;34933;40.968;14.538;2023-11-21T11:41:33;10.48;;;4.22;;
48767;SDS011;34933;40.968;14.538;2023-11-21T11:47:35;9.90;;;4.10;;
48767;SDS011;34933;40.968;14.538;2023-11-21T11:50:21;9.20;;;3.90;;
48767;SDS011;34933;40.968;14.538;2023-11-21T11:53:13;11.70;;;3.40;;
48767;SDS011;34933;40.968;14.538;2023-11-21T11:59:07;11.82;;;4.72;;
48767;SDS011;34933;40.968;14.538;2023-11-21T12:01:53;20.98;;;5.13;;
48767;SDS011;34933;40.968;14.538;2023-11-21T12:04:41;8.60;;;4.05;;
48767;SDS011;34933;40.968;14.538;2023-11-21T12:07:30;9.70;;;3.00;;
48767;SDS011;34933;40.968;14.538;2023-11-21T12:10:28;8.20;;;3.97;;
48767;SDS011;34933;40.968;14.538;2023-11-21T12:13:13;8.55;;;4.32;;
48767;SDS011;34933;40.968;14.538;2023-11-21T12:15:58;10.80;;;4.53;;
48767;SDS011;34933;40.968;14.538;2023-11-21T12:18:43;5.60;;;2.60;;
48767;SDS011;34933;40.968;14.538;2023-11-21T12:21:28;12.68;;;5.95;;
48767;SDS011;34933;40.968;14.538;2023-11-21T12:24:14;10.35;;;3.70;;
48767;SDS011;34933;40.968;14.538;2023-11-21T12:27:00;8.60;;;3.00;;
48767;SDS011;34933;40.968;14.538;2023-11-21T12:29:45;8.68;;;3.28;;
48767;SDS011;34933;40.968;14.538;2023-11-21T12:32:30;10.07;;;3.13;;
48767;SDS011;34933;40.968;14.538;2023-11-21T12:35:14;18.92;;;5.25;;
48767;SDS011;34933;40.968;14.538;2023-11-21T12:38:02;11.25;;;3.40;;
48767;SDS011;34933;40.968;14.538;2023-11-21T12:40:47;5.90;;;3.08;;
48767;SDS011;34933;40.968;14.538;2023-11-21T12:43:32;7.80;;;3.33;;
48767;SDS011;34933;40.968;14.538;2023-11-21T12:46:18;7.70;;;2.90;;
48767;SDS011;34933;40.968;14.538;2023-11-21T12:49:04;14.00;;;3.65;;
48767;SDS011;34933;40.968;14.538;2023-11-21T12:51:49;8.43;;;2.60;;
48767;SDS011;34933;40.968;14.538;2023-11-21T12:54:34;6.53;;;2.88;;
48767;SDS011;34933;40.968;14.538;2023-11-21T12:57:19;8.20;;;3.55;;
48767;SDS011;34933;40.968;14.538;2023-11-21T13:00:04;9.07;;;3.63;;
48767;SDS011;34933;40.968;14.538;2023-11-21T13:02:57;15.15;;;6.80;;
48767;SDS011;34933;40.968;14.538;2023-11-21T13:05:42;24.10;;;12.77;;
48767;SDS011;34933;40.968;14.538;2023-11-21T13:08:30;13.48;;;6.07;;
48767;SDS011;34933;40.968;14.538;2023-11-21T13:11:17;8.38;;;4.50;;
48767;SDS011;34933;40.968;14.538;2023-11-21T13:14:02;16.15;;;7.60;;
48767;SDS011;34933;40.968;14.538;2023-11-21T13:16:47;11.93;;;6.15;;
48767;SDS011;34933;40.968;14.538;2023-11-21T13:19:32;14.63;;;11.00;;
48767;SDS011;34933;40.968;14.538;2023-11-21T13:22:16;9.80;;;3.72;;
48767;SDS011;34933;40.968;14.538;2023-11-21T13:25:02;16.20;;;7.22;;
48767;SDS011;34933;40.968;14.538;2023-11-21T13:27:51;7.03;;;3.53;;
48767;SDS011;34933;40.968;14.538;2023-11-21T13:30:35;5.53;;;3.08;;
48767;SDS011;34933;40.968;14.538;2023-11-21T13:33:21;9.60;;;4.07;;
48767;SDS011;34933;40.968;14.538;2023-11-21T13:36:11;11.70;;;4.05;;
48767;SDS011;34933;40.968;14.538;2023-11-21T13:38:58;14.65;;;5.53;;
48767;SDS011;34933;40.968;14.538;2023-11-21T13:41:48;12.25;;;7.60;;
48767;SDS011;34933;40.968;14.538;2023-11-21T13:44:35;19.10;;;12.55;;
48767;SDS011;34933;40.968;14.538;2023-11-21T13:47:22;11.80;;;5.65;;
48767;SDS011;34933;40.968;14.538;2023-11-21T13:50:09;7.40;;;3.92;;
48767;SDS011;34933;40.968;14.538;2023-11-21T13:53:01;12.07;;;4.10;;
48767;SDS011;34933;40.968;14.538;2023-11-21T13:56:03;12.68;;;4.60;;
48767;SDS011;34933;40.968;14.538;2023-11-21T13:58:48;18.38;;;5.63;;
48767;SDS011;34933;40.968;14.538;2023-11-21T14:01:35;10.63;;;4.45;;
48767;SDS011;34933;40.968;14.538;2023-11-21T14:04:38;15.73;;;6.18;;
48767;SDS011;34933;40.968;14.538;2023-11-21T14:07:44;9.52;;;5.45;;
48767;SDS011;34933;40.968;14.538;2023-11-21T14:10:31;11.88;;;5.18;;
48767;SDS011;34933;40.968;14.538;2023-11-21T14:13:23;9.57;;;5.00;;
48767;SDS011;34933;40.968;14.538;2023-11-21T14:16:08;14.25;;;6.28;;
48767;SDS011;34933;40.968;14.538;2023-11-21T14:18:54;9.07;;;5.88;;
48767;SDS011;34933;40.968;14.538;2023-11-21T14:21:47;13.65;;;5.78;;
48767;SDS011;34933;40.968;14.538;2023-11-21T14:24:35;16.75;;;7.45;;
48767;SDS011;34933;40.968;14.538;2023-11-21T14:27:20;17.77;;;8.50;;
48767;SDS011;34933;40.968;14.538;2023-11-21T14:30:05;17.45;;;9.27;;
48767;SDS011;34933;40.968;14.538;2023-11-21T14:32:50;28.00;;;16.67;;
48767;SDS011;34933;40.968;14.538;2023-11-21T14:35:35;40.00;;;22.33;;
48767;SDS011;34933;40.968;14.538;2023-11-21T14:38:20;38.78;;;23.73;;
48767;SDS011;34933;40.968;14.538;2023-11-21T14:41:05;23.90;;;15.95;;
48767;SDS011;34933;40.968;14.538;2023-11-21T14:43:52;22.65;;;14.18;;
48767;SDS011;34933;40.968;14.538;2023-11-21T14:46:38;19.42;;;11.52;;
48767;SDS011;34933;40.968;14.538;2023-11-21T14:49:23;17.13;;;10.95;;
48767;SDS011;34933;40.968;14.538;2023-11-21T14:52:11;17.98;;;11.90;;
48767;SDS011;34933;40.968;14.538;2023-11-21T14:55:16;13.77;;;8.95;;
48767;SDS011;34933;40.968;14.538;2023-11-21T14:58:04;29.23;;;11.00;;
48767;SDS011;34933;40.968;14.538;2023-11-21T15:00:49;24.38;;;10.18;;
48767;SDS011;34933;40.968;14.538;2023-11-21T15:03:34;19.55;;;10.65;;
48767;SDS011;34933;40.968;14.538;2023-11-21T15:06:27;22.77;;;12.45;;
48767;SDS011;34933;40.968;14.538;2023-11-21T15:09:14;30.75;;;14.38;;
48767;SDS011;34933;40.968;14.538;2023-11-21T15:11:59;26.25;;;15.02;;
48767;SDS011;34933;40.968;14.538;2023-11-21T15:14:57;32.72;;;20.05;;
48767;SDS011;34933;40.968;14.538;2023-11-21T15:17:42;43.58;;;24.45;;
48767;SDS011;34933;40.968;14.538;2023-11-21T15:20:27;24.27;;;12.50;;
48767;SDS011;34933;40.968;14.538;2023-11-21T15:23:12;23.20;;;12.88;;
48767;SDS011;34933;40.968;14.538;2023-11-21T15:25:57;20.65;;;13.77;;
48767;SDS011;34933;40.968;14.538;2023-11-21T15:28:41;27.45;;;14.27;;
48767;SDS011;34933;40.968;14.538;2023-11-21T15:31:26;22.08;;;13.35;;
48767;SDS011;34933;40.968;14.538;2023-11-21T15:34:11;20.83;;;14.88;;
48767;SDS011;34933;40.968;14.538;2023-11-21T15:36:55;34.25;;;19.20;;
48767;SDS011;34933;40.968;14.538;2023-11-21T15:39:40;34.03;;;20.60;;
48767;SDS011;34933;40.968;14.538;2023-11-21T15:42:25;33.85;;;19.15;;
48767;SDS011;34933;40.968;14.538;2023-11-21T15:45:10;35.35;;;19.92;;
48767;SDS011;34933;40.968;14.538;2023-11-21T15:47:55;32.10;;;19.88;;
48767;SDS011;34933;40.968;14.538;2023-11-21T15:50:41;30.10;;;18.60;;
48767;SDS011;34933;40.968;14.538;2023-11-21T15:53:27;35.28;;;23.77;;
48767;SDS011;34933;40.968;14.538;2023-11-21T15:56:11;36.97;;;24.70;;
48767;SDS011;34933;40.968;14.538;2023-11-21T15:58:56;31.92;;;24.40;;
48767;SDS011;34933;40.968;14.538;2023-11-21T16:01:41;31.50;;;24.20;;
48767;SDS011;34933;40.968;14.538;2023-11-21T16:04:29;40.88;;;29.58;;
48767;SDS011;34933;40.968;14.538;2023-11-21T16:07:14;37.20;;;28.17;;
48767;SDS011;34933;40.968;14.538;2023-11-21T16:09:58;155.73;;;125.07;;
48767;SDS011;34933;40.968;14.538;2023-11-21T16:12:43;45.45;;;31.27;;
48767;SDS011;34933;40.968;14.538;2023-11-21T16:15:27;31.52;;;22.02;;
48767;SDS011;34933;40.968;14.538;2023-11-21T16:18:12;36.95;;;24.88;;
48767;SDS011;34933;40.968;14.538;2023-11-21T16:20:57;37.15;;;24.75;;
48767;SDS011;34933;40.968;14.538;2023-11-21T16:23:41;28.60;;;18.77;;
48767;SDS011;34933;40.968;14.538;2023-11-21T16:26:26;29.60;;;21.50;;